Terminal Aerodrome Forecast
Issued by NWS Shreveport, LA

Home | Current Version | Previous Version | Text Only | Print | Product List | Glossary On
Versions: 1 2 3 4 5 6 7 8 9 10 11 12 13
000
FTUS44 KSHV 300537
TAFELD
TAF
KELD 300537Z 3006/0106 33003KT 4SM BR SCT070
      TEMPO 3010/3013 2SM BR
     FM301400 33006KT P6SM FEW070 SCT280
     FM301900 32006KT P6SM SCT070 SCT280
     FM010000 33003KT P6SM SKC=

USA.gov is the U.S. government's official web portal to all federal, state and local government web resources and services.